Latest Weather Observations for Swanbourne

IDW60901

Issued at 9:45 pm WST Wednesday 22 October 2014 (issued every 10 minutes, with the page automatically refreshed every 10 minutes)

About weather observations | Map of Perth area stations | Latest observations for Perth area | Other Formats
Station Details ID: 009215 Name: SWANBOURNE Lat: -31.96 Lon: 115.76 Height: 40.96 m
Data from the previous 72 hours. | See also: Recent months at Swanbourne
Date/Time
WST
Tmp

°C
App
Tmp
°C
Dew
Point
°C
Rel
Hum
%
Delta-T

°C
Wind Press
QNH
hPa
Press
MSL
hPa
Rain
since
9 am
mm
Dir
 
Spd
km/h
Gust
km/h
Spd
kts
Gust
kts
22/09:30pm 16.9 15.4 15.2 90 1.0 N 17 26 9 14 - - 1.4
22/09:00pm 19.0 15.8 14.3 74 2.7 NNW 24 33 13 18 - - 0.0
22/08:30pm 18.7 15.2 14.6 77 2.4 NW 26 37 14 20 - - 0.0
22/08:00pm 18.5 15.0 14.4 77 2.4 NW 26 35 14 19 - - 0.0
22/07:30pm 18.3 16.3 13.8 75 2.6 NW 17 28 9 15 - - 0.0
22/07:00pm 18.4 16.0 13.9 75 2.6 WNW 19 28 10 15 - - 0.0
22/06:30pm 18.7 15.9 14.2 75 2.6 WNW 22 30 12 16 - - 0.0
22/06:00pm 19.4 15.7 14.0 71 3.1 WNW 26 35 14 19 - - 0.0
22/05:30pm 19.8 16.2 15.2 75 2.7 WNW 28 43 15 23 - - 0.0
22/05:00pm 20.7 16.5 15.7 73 3.0 WNW 32 43 17 23 - - 0.0
22/04:30pm 21.4 17.6 15.7 70 3.4 WNW 30 44 16 24 - - 0.0
22/04:00pm 22.0 19.2 16.3 70 3.5 WNW 26 39 14 21 - - 0.0
22/03:38pm 22.4 18.7 16.9 71 3.4 NW 32 50 17 27 - - 0.0
22/03:30pm 22.0 16.7 16.3 70 3.5 WNW 39 54 21 29 - - 0.0
22/03:02pm 22.9 19.9 16.9 69 3.7 NW 28 48 15 26 - - 0.0
22/03:00pm 22.8 19.3 16.6 68 3.8 NW 30 48 16 26 - - 0.0
22/02:46pm 23.3 20.4 17.1 68 3.8 NW 28 46 15 25 - - 0.0
22/02:30pm 23.7 20.7 16.7 65 4.3 NW 28 44 15 24 - - 0.0
22/02:00pm 23.9 20.7 16.4 63 4.6 NW 28 37 15 20 - - 0.0
22/01:30pm 24.6 21.6 15.8 58 5.3 NW 26 37 14 20 - - 0.0
22/01:00pm 25.6 23.3 15.6 54 6.1 NW 22 30 12 16 - - 0.0
22/12:30pm 27.1 25.5 15.1 47 7.3 WNW 17 26 9 14 - - 0.0
22/12:00pm 31.3 27.8 10.1 27 12.1 N 19 32 10 17 - - 0.0
22/11:30am 30.1 26.4 10.1 29 11.3 NE 20 37 11 20 - - 0.0
22/11:00am 29.0 25.9 11.6 34 10.1 ENE 19 32 10 17 - - 0.0
22/10:30am 27.9 24.1 11.0 35 9.6 ENE 22 43 12 23 - - 0.0
22/10:00am 27.3 24.6 11.7 37 9.0 NE 17 28 9 15 - - 0.0
22/09:30am 25.6 22.1 11.0 40 8.2 NNE 20 32 11 17 - - 0.0
22/09:00am 25.0 22.8 12.2 44 7.3 NNE 15 28 8 15 - - 0.0
22/08:30am 23.8 21.0 11.5 46 6.9 NNE 17 35 9 19 - - 0.0
22/08:00am 21.7 17.0 12.0 54 5.5 ENE 28 43 15 23 - - 0.0
22/07:30am 20.8 16.1 12.0 57 4.9 E 28 41 15 22 - - 0.0
22/07:00am 19.2 14.9 12.0 63 4.0 E 26 39 14 21 - - 0.0
22/06:30am 18.1 13.8 11.9 67 3.4 E 26 39 14 21 - - 0.0
22/06:00am 17.9 13.1 11.7 67 3.4 E 28 43 15 23 - - 0.0
22/05:30am 17.7 12.2 11.7 68 3.3 E 32 50 17 27 - - 0.0
22/05:03am 17.7 12.9 11.7 68 3.3 E 28 48 15 26 - - 0.0
22/05:00am 17.7 12.9 11.7 68 3.3 E 28 44 15 24 - - 0.0
22/04:30am 17.8 13.0 11.8 68 3.3 E 28 43 15 23 - - 0.0
22/04:00am 17.9 14.3 11.7 67 3.4 E 22 37 12 20 - - 0.0
22/03:30am 18.1 14.4 11.4 65 3.7 E 22 35 12 19 - - 0.0
22/03:00am 18.3 14.7 10.7 61 4.1 E 20 32 11 17 - - 0.0
22/02:30am 18.8 15.6 10.1 57 4.7 E 17 30 9 16 - - 0.0
22/02:00am 19.0 15.8 10.0 56 4.8 E 17 28 9 15 - - 0.0
22/01:30am 18.6 15.4 9.9 57 4.6 E 17 22 9 12 - - 0.0
22/01:00am 17.5 14.6 9.7 60 4.1 E 15 20 8 11 - - 0.0
22/12:30am 16.8 14.8 10.0 64 3.6 E 11 17 6 9 - - 0.0
22/12:00am 15.6 13.7 11.8 78 2.1 E 13 17 7 9 - - 0.0
 
Date/Time
WST
Tmp

°C
App
Tmp
°C
Dew
Point
°C
Rel
Hum
%
Delta-T

°C
Wind Press
QNH
hPa
Press
MSL
hPa
Rain
since
9 am
mm
Dir
 
Spd
km/h
Gust
km/h
Spd
kts
Gust
kts
21/11:30pm 15.3 14.3 12.2 82 1.7 E 9 13 5 7 - - 0.0
21/11:00pm 15.5 14.4 11.9 79 2.0 ESE 9 11 5 6 - - 0.0
21/10:30pm 16.0 14.1 11.8 76 2.3 ESE 13 17 7 9 - - 0.0
21/10:00pm 16.2 14.6 11.4 73 2.6 ESE 11 17 6 9 - - 0.0
21/09:30pm 16.6 14.9 11.1 70 3.0 SE 11 15 6 8 - - 0.0
21/09:00pm 17.3 15.0 11.6 69 3.1 SE 15 22 8 12 - - 0.0
21/08:30pm 17.3 15.5 12.2 72 2.8 SE 13 22 7 12 - - 0.0
21/08:00pm 16.9 15.7 12.8 77 2.3 SE 11 17 6 9 - - 0.0
21/07:30pm 16.6 16.1 12.8 78 2.1 S 7 13 4 7 - - 0.0
21/07:00pm 17.2 16.3 12.7 75 2.5 S 9 13 5 7 - - 0.0
21/06:30pm 17.7 16.7 12.4 71 2.9 S 9 13 5 7 - - 0.0
21/06:00pm 18.8 17.5 12.5 67 3.5 S 11 15 6 8 - - 0.0
21/05:30pm 19.8 18.1 12.6 63 4.1 SSW 13 20 7 11 - - 0.0
21/05:00pm 20.0 17.5 12.3 61 4.3 SSW 17 24 9 13 - - 0.0
21/04:30pm 19.8 16.6 11.8 60 4.4 SSW 20 30 11 16 - - 0.0
21/04:00pm 20.2 17.2 11.9 59 4.6 SSW 19 28 10 15 - - 0.0
21/03:30pm 20.2 17.0 11.9 59 4.6 SSW 20 32 11 17 - - 0.0
21/03:00pm 20.7 17.6 12.1 58 4.8 SW 20 28 11 15 - - 0.0
21/02:30pm 20.4 17.0 11.3 56 5.0 SW 20 26 11 14 - - 0.0
21/02:00pm 20.5 17.3 11.4 56 5.0 SW 19 26 10 14 - - 0.0
21/01:30pm 21.3 18.3 11.9 55 5.3 SW 19 26 10 14 - - 0.0
21/01:00pm 20.8 17.6 12.0 57 4.9 SW 20 26 11 14 - - 0.0
21/12:30pm 20.5 17.8 11.7 57 4.9 SW 17 24 9 13 - - 0.0
21/12:00pm 20.4 17.8 11.9 58 4.7 WSW 17 26 9 14 - - 0.0
21/11:30am 20.0 16.8 11.8 59 4.6 WSW 20 26 11 14 - - 0.0
21/11:00am 22.3 21.4 11.4 50 6.1 SSE 7 13 4 7 - - 0.0
21/10:30am 21.0 19.9 10.8 52 5.6 E 7 19 4 10 - - 0.0
21/10:00am 19.3 17.6 10.0 55 5.0 ESE 9 13 5 7 - - 0.0
21/09:30am 19.7 18.5 11.7 60 4.4 ESE 9 15 5 8 - - 0.0
21/09:00am 19.1 17.8 11.4 61 4.2 SE 9 19 5 10 - - 0.0
21/08:30am 17.4 16.3 10.5 64 3.7 ENE 7 15 4 8 - - 0.0
21/08:00am 17.4 16.7 11.4 68 3.3 E 6 11 3 6 - - 0.0
21/07:30am 15.6 14.4 11.6 77 2.2 ESE 9 13 5 7 - - 0.0
21/07:00am 14.1 12.9 11.6 85 1.3 E 9 13 5 7 - - 0.0
21/06:30am 12.4 11.2 11.6 95 0.4 E 9 11 5 6 - - 0.0
21/06:00am 10.9 9.0 10.4 97 0.3 E 11 13 6 7 - - 0.0
21/05:30am 10.6 8.6 10.0 96 0.3 E 11 15 6 8 - - 0.0
21/05:00am 10.7 9.0 9.9 95 0.4 E 9 11 5 6 - - 0.0
21/04:30am 10.9 9.2 10.0 94 0.5 E 9 11 5 6 - - 0.0
21/04:00am 11.1 9.4 10.0 93 0.6 E 9 11 5 6 - - 0.0
21/03:30am 11.6 10.1 10.5 93 0.6 E 9 11 5 6 - - 0.0
21/03:00am 11.8 10.3 10.4 91 0.7 E 9 9 5 5 - - 0.0
21/02:30am 11.9 10.6 10.1 89 0.9 ENE 7 9 4 5 - - 0.0
21/02:00am 12.0 10.7 9.9 87 1.1 ENE 7 9 4 5 - - 0.0
21/01:30am 12.4 11.1 10.1 86 1.2 ESE 7 7 4 4 - - 0.0
21/01:00am 12.7 11.4 9.9 83 1.4 ESE 7 7 4 4 - - 0.0
21/12:30am 13.0 11.7 10.0 82 1.5 SE 7 9 4 5 - - 0.0
21/12:00am 13.3 12.0 9.9 80 1.8 SE 7 9 4 5 - - 0.0
 
Date/Time
WST
Tmp

°C
App
Tmp
°C
Dew
Point
°C
Rel
Hum
%
Delta-T

°C
Wind Press
QNH
hPa
Press
MSL
hPa
Rain
since
9 am
mm
Dir
 
Spd
km/h
Gust
km/h
Spd
kts
Gust
kts
20/11:30pm 13.6 12.3 9.8 78 2.0 ESE 7 7 4 4 - - 0.0
20/11:00pm 14.0 12.6 9.6 75 2.3 SSE 7 9 4 5 - - 0.0
20/10:30pm 13.9 12.6 9.3 74 2.3 SSE 6 9 3 5 - - 0.0
20/10:00pm 14.2 12.3 9.2 72 2.6 S 9 13 5 7 - - 0.0
20/09:30pm 14.7 12.9 9.5 71 2.7 S 9 11 5 6 - - 0.0
20/09:00pm 15.0 13.6 9.6 70 2.8 S 7 11 4 6 - - 0.0
20/08:30pm 15.4 13.3 9.7 69 3.0 S 11 19 6 10 - - 0.0
20/08:00pm 15.9 13.9 10.2 69 3.0 SSW 11 19 6 10 - - 0.0
20/07:30pm 15.8 13.9 10.6 71 2.8 S 11 15 6 8 - - 0.0
20/07:00pm 16.2 13.7 11.2 72 2.7 SSW 15 20 8 11 - - 0.0
20/06:30pm 16.4 14.1 11.6 73 2.6 SSW 15 22 8 12 - - 0.0
20/06:00pm 17.0 15.1 11.9 72 2.8 SSW 13 24 7 13 - - 0.0
20/05:30pm 18.3 15.4 12.3 68 3.3 SSW 19 26 10 14 - - 0.0
20/05:00pm 19.1 16.3 12.6 66 3.6 SSW 19 26 10 14 - - 0.0
20/04:30pm 19.2 16.8 12.7 66 3.7 WSW 17 26 9 14 - - 0.0
20/04:00pm 19.7 17.3 12.5 63 4.0 SW 17 28 9 15 - - 0.0
20/03:30pm 20.6 18.5 12.3 59 4.7 SW 15 24 8 13 - - 0.0
20/03:00pm 20.0 17.9 13.5 66 3.7 SW 17 24 9 13 - - 0.0
20/02:30pm 19.8 17.2 12.1 61 4.3 WSW 17 28 9 15 - - 0.0
20/02:00pm 19.8 16.7 12.1 61 4.3 WSW 20 28 11 15 - - 0.0
20/01:30pm 20.3 17.9 12.5 61 4.4 WSW 17 26 9 14 - - 0.0
20/01:00pm 20.1 17.1 12.1 60 4.5 SW 19 28 10 15 - - 0.0
20/12:30pm 20.2 17.2 11.9 59 4.6 WSW 19 28 10 15 - - 0.0
20/12:00pm 20.2 17.3 12.2 60 4.5 SW 19 28 10 15 - - 0.0
20/11:30am 19.8 16.8 12.1 61 4.3 SSW 19 30 10 16 - - 0.0
20/11:00am 19.7 16.8 12.2 62 4.2 SW 19 26 10 14 - - 0.0
20/10:30am 18.7 15.7 11.8 64 3.8 SW 19 26 10 14 - - 0.0
20/10:00am 18.7 16.0 11.8 64 3.8 SW 17 24 9 13 - - 0.0
20/09:30am 18.4 16.2 12.2 67 3.4 SW 15 22 8 12 - - 0.0
20/09:00am 17.3 16.4 12.6 74 2.6 WSW 9 15 5 8 - - 7.4
20/08:30am 17.8 16.3 12.0 69 3.2 SSW 11 19 6 10 - - 7.4
20/08:00am 16.8 16.3 12.1 74 2.6 S 6 9 3 5 - - 7.4
20/07:30am 15.3 14.3 10.3 72 2.6 SSE 6 9 3 5 - - 7.4
20/07:00am 15.5 14.8 11.3 76 2.3 ESE 6 11 3 6 - - 7.4
20/06:30am 13.5 12.4 10.7 83 1.5 E 7 9 4 5 - - 7.4
20/06:00am 11.7 10.3 9.6 87 1.1 ESE 7 9 4 5 - - 7.4
20/05:30am 11.7 10.2 9.3 85 1.2 ESE 7 9 4 5 - - 7.4
20/05:00am 11.9 10.5 9.5 85 1.2 SE 7 9 4 5 - - 7.4
20/04:30am 12.2 10.4 9.6 84 1.3 SE 9 13 5 7 - - 7.4
20/04:00am 12.1 10.3 9.5 84 1.3 SSE 9 15 5 8 - - 7.4
20/03:30am 12.0 10.2 9.4 84 1.3 SSE 9 15 5 8 - - 7.4
20/03:00am 11.9 9.7 9.5 85 1.2 SSE 11 19 6 10 - - 7.4
20/02:30am 11.7 9.6 9.8 88 1.0 SSE 11 17 6 9 - - 7.4
20/02:00am 11.5 9.7 9.6 88 1.0 SSE 9 13 5 7 - - 7.4
20/01:30am 11.9 9.4 9.8 87 1.1 SSE 13 20 7 11 - - 7.4
20/01:00am 11.9 9.8 9.6 86 1.2 SSE 11 15 6 8 - - 7.4
20/12:30am 12.4 10.4 10.0 85 1.2 SSE 11 15 6 8 - - 7.4
20/12:00am 12.0 10.2 9.6 85 1.2 S 9 15 5 8 - - 7.4
 
Date/Time
WST
Tmp

°C
App
Tmp
°C
Dew
Point
°C
Rel
Hum
%
Delta-T

°C
Wind Press
QNH
hPa
Press
MSL
hPa
Rain
since
9 am
mm
Dir
 
Spd
km/h
Gust
km/h
Spd
kts
Gust
kts
19/11:30pm 11.8 10.3 9.2 84 1.3 SSE 7 11 4 6 - - 7.4
19/11:00pm 12.2 10.4 9.4 83 1.4 S 9 13 5 7 - - 7.4
19/10:30pm 11.8 9.9 9.2 84 1.3 S 9 13 5 7 - - 7.4
19/10:00pm 12.1 9.9 9.3 83 1.4 S 11 15 6 8 - - 7.4

Latest Capital City Observations: Canberra | Sydney | Melbourne | Brisbane | Adelaide | Perth | Hobart | Darwin

Other Formats:

Comma delimited format used in spreadsheet applications
http://www.bom.gov.au/fwo/IDW60901/IDW60901.94614.axf

JavaScript Object Notation format (JSON) in row-major order
http://www.bom.gov.au/fwo/IDW60901/IDW60901.94614.json